createdAt,value
2023-10-11T00:00:47.418Z,7.88
2023-10-11T00:03:19.410Z,6.80
2023-10-11T00:05:49.546Z,7.82
2023-10-11T00:08:20.087Z,7.78
2023-10-11T00:10:51.222Z,7.05
2023-10-11T00:13:20.053Z,7.43
2023-10-11T00:15:51.580Z,7.55
2023-10-11T00:18:20.343Z,7.75
2023-10-11T00:20:51.849Z,7.18
2023-10-11T00:23:23.794Z,7.50
2023-10-11T00:25:53.223Z,8.02
2023-10-11T00:28:24.853Z,8.02
2023-10-11T00:30:57.104Z,8.23
2023-10-11T00:33:37.572Z,7.43
2023-10-11T00:36:06.338Z,7.55
2023-10-11T00:38:44.478Z,7.20
2023-10-11T00:41:18.780Z,7.68
2023-10-11T00:43:51.206Z,7.80
2023-10-11T00:46:23.713Z,7.80
2023-10-11T00:48:56.624Z,7.13
2023-10-11T00:51:28.315Z,7.78
2023-10-11T00:53:57.261Z,7.60
2023-10-11T00:56:30.285Z,7.25
2023-10-11T00:58:58.332Z,9.20
2023-10-11T01:01:28.019Z,8.27
2023-10-11T01:03:56.784Z,8.25
2023-10-11T01:06:26.982Z,7.93
2023-10-11T01:08:55.284Z,8.20
2023-10-11T01:11:24.046Z,7.95
2023-10-11T01:13:53.139Z,7.88
2023-10-11T01:16:25.613Z,8.10
2023-10-11T01:18:55.071Z,8.55
2023-10-11T01:21:24.328Z,8.60
2023-10-11T01:23:52.131Z,7.57
2023-10-11T01:26:22.739Z,8.25
2023-10-11T01:28:52.466Z,7.75
2023-10-11T01:31:20.626Z,8.25
2023-10-11T01:33:50.615Z,8.48
2023-10-11T01:36:22.732Z,7.97
2023-10-11T01:38:52.322Z,8.70
2023-10-11T01:41:22.677Z,8.63
2023-10-11T01:43:51.963Z,9.05
2023-10-11T01:46:26.525Z,8.65
2023-10-11T01:48:55.982Z,8.77
2023-10-11T01:51:27.446Z,9.80
2023-10-11T01:53:57.883Z,8.63
2023-10-11T01:56:27.419Z,8.98
2023-10-11T01:58:58.143Z,8.90
2023-10-11T02:01:28.326Z,8.70
2023-10-11T02:04:00.833Z,9.55
2023-10-11T02:06:33.600Z,8.57
2023-10-11T02:09:03.901Z,8.85
2023-10-11T02:11:31.708Z,8.90
2023-10-11T02:14:00.486Z,8.15
2023-10-11T02:16:31.964Z,8.43
2023-10-11T02:19:01.212Z,9.48
2023-10-11T02:21:30.702Z,8.73
2023-10-11T02:24:00.155Z,8.57
2023-10-11T02:26:31.211Z,8.65
2023-10-11T02:29:01.727Z,8.18
2023-10-11T02:31:33.353Z,8.15
2023-10-11T02:34:13.981Z,8.27
2023-10-11T02:36:44.184Z,8.25
2023-10-11T02:39:19.663Z,9.10
2023-10-11T02:41:51.980Z,8.93
2023-10-11T02:44:24.270Z,8.82
2023-10-11T02:46:52.554Z,9.27
2023-10-11T02:49:24.565Z,8.60
2023-10-11T02:51:57.491Z,8.75
2023-10-11T02:54:34.943Z,8.52
2023-10-11T02:57:07.729Z,8.75
2023-10-11T02:59:38.254Z,8.65
2023-10-11T03:03:11.574Z,8.90
2023-10-11T03:05:39.347Z,8.95
2023-10-11T03:08:15.911Z,8.77
2023-10-11T03:10:46.891Z,9.95
2023-10-11T03:13:24.909Z,9.57
2023-10-11T03:15:56.007Z,8.32
2023-10-11T03:18:26.416Z,9.25
2023-10-11T03:21:09.893Z,8.77
2023-10-11T03:23:44.512Z,8.82
2023-10-11T03:26:18.073Z,9.93
2023-10-11T03:28:58.062Z,9.30
2023-10-11T03:31:28.880Z,9.07
2023-10-11T03:33:57.578Z,9.55
2023-10-11T03:36:32.313Z,9.13
2023-10-11T03:39:10.122Z,8.63
2023-10-11T03:41:45.970Z,9.20
2023-10-11T03:44:18.670Z,9.07
2023-10-11T03:46:48.643Z,9.07
2023-10-11T03:49:37.857Z,8.88
2023-10-11T03:52:06.345Z,9.20
2023-10-11T03:54:37.964Z,9.02
2023-10-11T03:57:06.942Z,9.30
2023-10-11T03:59:39.868Z,9.40
2023-10-11T04:02:11.515Z,9.90
2023-10-11T04:04:41.449Z,8.80
2023-10-11T04:07:13.754Z,8.88
2023-10-11T04:09:45.637Z,8.90
2023-10-11T04:12:14.264Z,8.40
2023-10-11T04:14:45.719Z,9.52
2023-10-11T04:17:27.543Z,9.85
2023-10-11T04:20:01.480Z,9.48
2023-10-11T04:22:32.567Z,9.27
2023-10-11T04:25:08.176Z,9.02
2023-10-11T04:27:49.230Z,9.55
2023-10-11T04:30:25.368Z,9.45
2023-10-11T04:32:57.396Z,9.52
2023-10-11T04:35:27.122Z,9.27
2023-10-11T04:38:02.618Z,8.68
2023-10-11T04:40:42.227Z,9.32
2023-10-11T04:43:21.681Z,8.77
2023-10-11T04:45:56.278Z,8.68
2023-10-11T04:48:35.173Z,8.48
2023-10-11T04:51:22.810Z,9.32
2023-10-11T04:53:58.222Z,9.27
2023-10-11T04:56:45.207Z,9.43
2023-10-11T04:59:19.049Z,8.98
2023-10-11T05:02:00.067Z,9.18
2023-10-11T05:04:33.971Z,10.02
2023-10-11T05:07:09.007Z,8.95
2023-10-11T05:09:41.274Z,10.13
2023-10-11T05:12:20.378Z,8.80
2023-10-11T05:15:02.925Z,9.02
2023-10-11T05:17:43.019Z,10.25
2023-10-11T05:20:46.226Z,9.60
2023-10-11T05:23:15.086Z,9.13
2023-10-11T05:25:57.656Z,9.07
2023-10-11T05:28:28.322Z,9.77
2023-10-11T05:31:23.613Z,9.40
2023-10-11T05:34:30.617Z,9.40
2023-10-11T05:37:15.714Z,8.88
2023-10-11T05:40:01.323Z,9.20
2023-10-11T05:42:46.464Z,14.10
2023-10-11T05:45:32.075Z,12.75
2023-10-11T05:48:19.473Z,10.93
2023-10-11T05:50:56.905Z,10.02
2023-10-11T05:53:26.976Z,9.60
2023-10-11T05:55:55.697Z,9.02
2023-10-11T05:58:23.971Z,9.95
2023-10-11T06:00:54.678Z,10.05
2023-10-11T06:03:26.252Z,9.38
2023-10-11T06:05:56.163Z,9.85
2023-10-11T06:08:25.669Z,9.20
2023-10-11T06:10:57.442Z,9.38
2023-10-11T06:13:25.256Z,9.90
2023-10-11T06:16:01.247Z,10.10
2023-10-11T06:18:44.840Z,9.57
2023-10-11T06:21:32.120Z,9.80
2023-10-11T06:24:01.073Z,9.98
2023-10-11T06:26:51.585Z,9.70
2023-10-11T06:29:24.110Z,9.77
2023-10-11T06:32:05.218Z,9.70
2023-10-11T06:34:46.432Z,9.85
2023-10-11T06:37:18.339Z,9.40
2023-10-11T06:40:04.061Z,9.57
2023-10-11T06:42:33.254Z,9.25
2023-10-11T06:45:04.615Z,9.27
2023-10-11T06:47:35.323Z,9.38
2023-10-11T06:50:12.975Z,8.93
2023-10-11T06:52:45.797Z,9.35
2023-10-11T06:55:19.620Z,9.23
2023-10-11T06:57:52.426Z,10.23
2023-10-11T07:00:26.299Z,8.60
2023-10-11T07:03:06.907Z,9.40
2023-10-11T07:05:41.743Z,9.13
2023-10-11T07:08:12.032Z,9.35
2023-10-11T07:10:46.560Z,9.32
2023-10-11T07:13:15.522Z,9.38
2023-10-11T07:15:45.148Z,8.88
2023-10-11T07:18:22.509Z,9.40
2023-10-11T07:20:59.093Z,9.05
2023-10-11T07:23:36.518Z,8.50
2023-10-11T07:26:25.129Z,9.20
2023-10-11T07:28:53.543Z,9.73
2023-10-11T07:31:22.494Z,9.45
2023-10-11T07:33:56.456Z,9.32
2023-10-11T07:36:26.448Z,9.48
2023-10-11T07:38:57.729Z,9.32
2023-10-11T07:41:29.677Z,10.40
2023-10-11T07:43:57.796Z,10.05
2023-10-11T07:46:26.320Z,9.63
2023-10-11T07:49:02.444Z,9.77
2023-10-11T07:51:31.380Z,10.50
2023-10-11T07:54:04.062Z,10.43
2023-10-11T07:56:37.090Z,24.60
2023-10-11T07:59:10.067Z,15.35
2023-10-11T08:01:44.741Z,13.85
2023-10-11T08:04:14.094Z,10.18
2023-10-11T08:06:42.433Z,9.57
2023-10-11T08:09:20.437Z,10.55
2023-10-11T08:11:54.282Z,8.90
2023-10-11T08:14:23.969Z,10.10
2023-10-11T08:16:52.503Z,10.07
2023-10-11T08:19:21.251Z,9.30
2023-10-11T08:21:55.849Z,8.48
2023-10-11T08:24:29.057Z,8.43
2023-10-11T08:27:06.991Z,8.68
2023-10-11T08:29:39.462Z,8.95
2023-10-11T08:32:14.186Z,7.70
2023-10-11T08:34:47.478Z,7.60
2023-10-11T08:37:15.917Z,6.45
2023-10-11T08:39:45.619Z,6.65
2023-10-11T08:42:16.020Z,6.43
2023-10-11T08:44:46.730Z,6.65
2023-10-11T08:47:20.464Z,6.50
2023-10-11T08:49:50.808Z,6.47
2023-10-11T08:52:23.694Z,6.13
2023-10-11T08:54:53.616Z,6.97
2023-10-11T08:57:24.784Z,6.43
2023-10-11T08:59:57.759Z,6.43
2023-10-11T09:02:28.083Z,7.05
2023-10-11T09:05:07.887Z,6.35
2023-10-11T09:07:39.695Z,6.80
2023-10-11T09:10:27.109Z,6.50
2023-10-11T09:13:01.528Z,6.63
2023-10-11T09:15:42.418Z,6.60
2023-10-11T09:18:16.533Z,5.38
2023-10-11T09:20:51.116Z,6.05
2023-10-11T09:23:22.151Z,6.07
2023-10-11T09:26:00.664Z,5.78
2023-10-11T09:28:29.185Z,6.32
2023-10-11T09:31:12.956Z,6.00
2023-10-11T09:33:42.758Z,5.45
2023-10-11T09:36:13.423Z,5.93
2023-10-11T09:38:42.005Z,5.72
2023-10-11T09:41:12.385Z,6.07
2023-10-11T09:43:45.470Z,5.40
2023-10-11T09:46:14.463Z,5.30
2023-10-11T09:48:43.482Z,5.40
2023-10-11T09:51:15.270Z,6.18
2023-10-11T09:53:50.980Z,5.97
2023-10-11T09:56:38.546Z,5.80
2023-10-11T09:59:23.492Z,4.68
2023-10-11T10:02:06.911Z,5.68
2023-10-11T10:04:58.999Z,5.32
2023-10-11T10:07:34.072Z,5.20
2023-10-11T10:10:03.610Z,5.63
2023-10-11T10:12:36.835Z,5.07
2023-10-11T10:15:10.841Z,5.20
2023-10-11T10:17:39.929Z,5.60
2023-10-11T10:20:46.375Z,5.60
2023-10-11T10:23:41.514Z,5.45
2023-10-11T10:26:39.520Z,4.93
2023-10-11T10:29:14.817Z,5.50
2023-10-11T10:32:08.481Z,5.88
2023-10-11T10:34:36.861Z,5.50
2023-10-11T10:37:10.731Z,5.30
2023-10-11T10:40:19.650Z,5.68
2023-10-11T10:43:24.943Z,5.03
2023-10-11T10:46:00.668Z,5.00
2023-10-11T10:48:32.623Z,4.78
2023-10-11T10:51:26.977Z,5.65
2023-10-11T10:53:55.290Z,4.75
2023-10-11T10:56:23.716Z,4.53
2023-10-11T10:59:03.972Z,4.75
2023-10-11T11:01:35.460Z,4.65
2023-10-11T11:04:08.049Z,4.80
2023-10-11T11:06:38.488Z,5.28
2023-10-11T11:09:14.026Z,4.63
2023-10-11T11:11:41.941Z,4.55
2023-10-11T11:14:10.643Z,5.10
2023-10-11T11:16:40.724Z,4.63
2023-10-11T11:19:17.773Z,4.82
2023-10-11T11:22:12.378Z,4.90
2023-10-11T11:24:39.624Z,5.25
2023-10-11T11:27:17.206Z,4.32
2023-10-11T11:29:51.073Z,4.70
2023-10-11T11:32:38.713Z,4.68
2023-10-11T11:35:11.087Z,4.50
2023-10-11T11:37:40.716Z,5.30
2023-10-11T11:40:25.079Z,4.80
2023-10-11T11:42:53.176Z,4.78
2023-10-11T11:45:21.585Z,4.70
2023-10-11T11:48:01.409Z,4.28
2023-10-11T11:50:32.077Z,4.53
2023-10-11T11:52:59.363Z,4.07
2023-10-11T11:55:27.334Z,5.03
2023-10-11T11:57:54.689Z,4.93
2023-10-11T12:00:39.928Z,4.80
2023-10-11T12:03:10.130Z,4.90
2023-10-11T12:05:42.096Z,4.90
2023-10-11T12:08:19.452Z,4.38
2023-10-11T12:10:48.825Z,4.78
2023-10-11T12:13:24.098Z,4.57
2023-10-11T12:15:56.033Z,4.60
2023-10-11T12:18:33.924Z,4.60
2023-10-11T12:21:12.741Z,4.85
2023-10-11T12:23:48.369Z,4.40
2023-10-11T12:26:18.228Z,5.18
2023-10-11T12:28:48.364Z,6.45
2023-10-11T12:31:18.272Z,4.32
2023-10-11T12:33:48.969Z,4.25
2023-10-11T12:36:21.618Z,4.50
2023-10-11T12:38:50.423Z,4.80
2023-10-11T12:41:18.496Z,4.18
2023-10-11T12:43:47.282Z,4.63
2023-10-11T12:46:20.121Z,4.63
2023-10-11T12:48:56.307Z,5.45
2023-10-11T12:51:25.122Z,4.22
2023-10-11T12:53:56.238Z,4.43
2023-10-11T12:56:25.160Z,4.25
2023-10-11T12:58:55.108Z,3.83
2023-10-11T13:01:37.904Z,3.97
2023-10-11T13:04:15.415Z,4.15
2023-10-11T13:06:50.700Z,3.72
2023-10-11T13:09:22.661Z,4.45
2023-10-11T13:11:50.511Z,4.07
2023-10-11T13:14:20.763Z,4.00
2023-10-11T13:16:50.437Z,3.65
2023-10-11T13:19:20.514Z,4.38
2023-10-11T13:21:48.718Z,5.10
2023-10-11T13:24:23.133Z,3.83
2023-10-11T13:26:52.774Z,4.03
2023-10-11T13:29:21.178Z,4.35
2023-10-11T13:31:50.104Z,4.50
2023-10-11T13:34:20.147Z,4.50
2023-10-11T13:36:48.079Z,4.35
2023-10-11T13:39:27.695Z,4.82
2023-10-11T13:41:57.242Z,4.68
2023-10-11T13:44:27.360Z,4.38
2023-10-11T13:46:57.012Z,4.10
2023-10-11T13:49:28.316Z,3.75
2023-10-11T13:51:59.662Z,4.35
2023-10-11T13:54:43.438Z,4.30
2023-10-11T13:57:12.864Z,4.25
2023-10-11T13:59:46.808Z,4.50
2023-10-11T14:02:35.579Z,4.00
2023-10-11T14:05:16.147Z,5.15
2023-10-11T14:07:53.403Z,5.60
2023-10-11T14:10:28.020Z,4.30
2023-10-11T14:13:01.632Z,4.43
2023-10-11T14:15:30.903Z,4.00
2023-10-11T14:18:01.215Z,4.65
2023-10-11T14:20:31.665Z,4.20
2023-10-11T14:23:04.360Z,3.90
2023-10-11T14:25:32.103Z,5.13
2023-10-11T14:27:59.922Z,4.40
2023-10-11T14:30:27.778Z,4.40
2023-10-11T14:32:55.622Z,4.38
2023-10-11T14:35:25.699Z,4.00
2023-10-11T14:37:55.053Z,4.40
2023-10-11T14:40:25.764Z,4.78
2023-10-11T14:42:53.550Z,5.10
2023-10-11T14:45:23.051Z,4.63
2023-10-11T14:47:52.053Z,4.53
2023-10-11T14:50:24.681Z,4.55
2023-10-11T14:52:54.728Z,5.13
2023-10-11T14:55:22.570Z,4.47
2023-10-11T14:57:50.870Z,4.82
2023-10-11T15:00:19.438Z,4.78
2023-10-11T15:02:48.166Z,4.93
2023-10-11T15:05:17.394Z,4.32
2023-10-11T15:07:45.220Z,4.35
2023-10-11T15:10:15.286Z,4.70
2023-10-11T15:12:44.351Z,4.57
2023-10-11T15:15:12.979Z,6.53
2023-10-11T15:17:40.861Z,5.43
2023-10-11T15:20:09.922Z,4.63
2023-10-11T15:22:37.856Z,4.43
2023-10-11T15:25:06.629Z,4.78
2023-10-11T15:27:35.843Z,4.63
2023-10-11T15:30:08.056Z,4.63
2023-10-11T15:32:36.137Z,4.68
2023-10-11T15:35:06.032Z,4.07
2023-10-11T15:37:33.766Z,4.75
2023-10-11T15:40:02.031Z,5.63
2023-10-11T15:42:31.323Z,4.75
2023-10-11T15:45:00.692Z,4.95
2023-10-11T15:47:36.446Z,4.45
2023-10-11T15:50:05.331Z,4.60
2023-10-11T15:52:33.334Z,4.53
2023-10-11T15:55:01.701Z,4.95
2023-10-11T15:57:29.489Z,3.97
2023-10-11T15:59:57.320Z,4.47
2023-10-11T16:02:26.804Z,4.75
2023-10-11T16:04:56.636Z,4.22
2023-10-11T16:07:26.419Z,4.68
2023-10-11T16:09:54.245Z,4.85
2023-10-11T16:12:23.875Z,4.72
2023-10-11T16:14:52.877Z,4.47
2023-10-11T16:17:20.798Z,5.68
2023-10-11T16:19:50.708Z,5.25
2023-10-11T16:22:18.543Z,4.45
2023-10-11T16:24:46.278Z,5.95
2023-10-11T16:27:15.787Z,8.05
2023-10-11T16:29:43.629Z,5.57
2023-10-11T16:32:11.325Z,4.88
2023-10-11T16:34:40.719Z,4.38
2023-10-11T16:37:09.750Z,7.70
2023-10-11T16:39:38.754Z,7.55
2023-10-11T16:42:06.930Z,5.93
2023-10-11T16:44:36.567Z,7.53
2023-10-11T16:47:10.377Z,5.32
2023-10-11T16:49:39.132Z,8.90
2023-10-11T16:52:07.631Z,7.88
2023-10-11T16:54:38.418Z,5.50
2023-10-11T16:57:07.835Z,5.53
2023-10-11T16:59:52.862Z,6.07
2023-10-11T17:02:21.969Z,5.30
2023-10-11T17:04:50.967Z,4.28
2023-10-11T17:07:19.575Z,4.18
2023-10-11T17:09:49.416Z,4.60
2023-10-11T17:12:17.494Z,5.05
2023-10-11T17:14:45.533Z,5.10
2023-10-11T17:17:13.307Z,6.35
2023-10-11T17:19:41.274Z,10.57
2023-10-11T17:22:10.781Z,14.55
2023-10-11T17:24:41.677Z,14.98
2023-10-11T17:27:10.889Z,13.55
2023-10-11T17:29:39.388Z,10.82
2023-10-11T17:32:07.224Z,9.50
2023-10-11T17:34:35.503Z,9.90
2023-10-11T17:37:03.415Z,11.32
2023-10-11T17:39:31.308Z,9.65
2023-10-11T17:41:59.069Z,6.78
2023-10-11T17:44:28.150Z,6.72
2023-10-11T17:46:58.590Z,5.63
2023-10-11T17:49:26.706Z,5.55
2023-10-11T17:51:54.549Z,15.10
2023-10-11T17:54:22.693Z,6.20
2023-10-11T17:56:54.945Z,5.57
2023-10-11T17:59:22.710Z,5.50
2023-10-11T18:01:52.825Z,5.18
2023-10-11T18:04:21.468Z,5.53
2023-10-11T18:06:49.608Z,4.53
2023-10-11T18:09:18.067Z,5.25
2023-10-11T18:11:46.114Z,4.75
2023-10-11T18:14:14.552Z,5.20
2023-10-11T18:16:42.405Z,5.25
2023-10-11T18:19:14.972Z,4.45
2023-10-11T18:21:45.209Z,4.93
2023-10-11T18:24:16.161Z,4.53
2023-10-11T18:26:44.713Z,7.22
2023-10-11T18:29:13.182Z,7.15
2023-10-11T18:31:41.067Z,5.40
2023-10-11T18:34:09.244Z,5.25
2023-10-11T18:36:39.964Z,4.72
2023-10-11T18:39:08.860Z,4.60
2023-10-11T18:41:37.260Z,4.35
2023-10-11T18:44:06.258Z,4.68
2023-10-11T18:46:34.235Z,5.13
2023-10-11T18:49:02.372Z,5.32
2023-10-11T18:51:30.337Z,5.32
2023-10-11T18:53:59.660Z,5.07
2023-10-11T18:56:27.595Z,4.70
2023-10-11T18:58:56.329Z,4.63
2023-10-11T19:01:24.527Z,6.53
2023-10-11T19:03:52.793Z,7.15
2023-10-11T19:06:20.870Z,5.55
2023-10-11T19:08:49.674Z,4.72
2023-10-11T19:11:20.994Z,4.80
2023-10-11T19:13:49.678Z,5.20
2023-10-11T19:16:25.108Z,5.63
2023-10-11T19:18:54.716Z,4.55
2023-10-11T19:21:22.715Z,5.88
2023-10-11T19:23:50.913Z,5.47
2023-10-11T19:26:21.119Z,5.00
2023-10-11T19:28:49.483Z,5.07
2023-10-11T19:31:17.996Z,5.28
2023-10-11T19:33:46.081Z,7.43
2023-10-11T19:36:17.393Z,5.25
2023-10-11T19:38:46.296Z,4.90
2023-10-11T19:41:14.549Z,4.70
2023-10-11T19:43:45.386Z,5.30
2023-10-11T19:46:14.740Z,5.43
2023-10-11T19:48:43.484Z,6.40
2023-10-11T19:51:12.617Z,5.47
2023-10-11T19:53:41.649Z,5.20
2023-10-11T19:56:18.917Z,5.15
2023-10-11T19:58:49.108Z,5.85
2023-10-11T20:01:19.598Z,5.95
2023-10-11T20:03:53.399Z,5.10
2023-10-11T20:06:23.687Z,4.80
2023-10-11T20:08:53.271Z,5.30
2023-10-11T20:11:22.204Z,8.00
2023-10-11T20:13:54.284Z,7.75
2023-10-11T20:16:22.374Z,5.15
2023-10-11T20:18:51.195Z,5.00
2023-10-11T20:21:20.703Z,4.85
2023-10-11T20:23:50.042Z,4.78
2023-10-11T20:26:21.403Z,5.15
2023-10-11T20:28:52.866Z,5.13
2023-10-11T20:31:21.374Z,5.05
2023-10-11T20:33:50.995Z,5.10
2023-10-11T20:36:19.614Z,4.80
2023-10-11T20:38:49.030Z,5.25
2023-10-11T20:41:19.647Z,5.20
2023-10-11T20:43:48.467Z,6.05
2023-10-11T20:46:18.873Z,6.22
2023-10-11T20:48:46.769Z,4.68
2023-10-11T20:51:17.032Z,5.25
2023-10-11T20:53:46.200Z,5.10
2023-10-11T20:56:14.318Z,5.05
2023-10-11T20:58:56.955Z,5.63
2023-10-11T21:01:27.749Z,6.03
2023-10-11T21:03:57.543Z,5.22
2023-10-11T21:06:26.371Z,7.10
2023-10-11T21:08:54.236Z,5.20
2023-10-11T21:11:22.684Z,5.70
2023-10-11T21:13:50.698Z,6.13
2023-10-11T21:16:18.561Z,5.57
2023-10-11T21:18:47.841Z,5.10
2023-10-11T21:21:19.399Z,4.80
2023-10-11T21:23:47.786Z,5.35
2023-10-11T21:26:17.118Z,5.40
2023-10-11T21:28:53.526Z,5.38
2023-10-11T21:31:22.498Z,5.50
2023-10-11T21:33:52.099Z,5.03
2023-10-11T21:36:20.088Z,5.30
2023-10-11T21:38:48.412Z,4.88
2023-10-11T21:41:16.578Z,5.30
2023-10-11T21:43:45.053Z,4.80
2023-10-11T21:46:14.125Z,5.95
2023-10-11T21:48:42.951Z,6.20
2023-10-11T21:51:25.794Z,5.45
2023-10-11T21:53:55.305Z,6.22
2023-10-11T21:56:23.040Z,5.15
2023-10-11T21:58:50.984Z,5.18
2023-10-11T22:01:24.526Z,5.53
2023-10-11T22:03:53.301Z,6.05
2023-10-11T22:06:22.707Z,5.13
2023-10-11T22:08:49.818Z,4.95
2023-10-11T22:11:17.676Z,5.75
2023-10-11T22:13:46.687Z,5.05
2023-10-11T22:16:15.360Z,4.80
2023-10-11T22:18:43.852Z,5.18
2023-10-11T22:21:13.764Z,5.40
2023-10-11T22:23:45.247Z,5.60
2023-10-11T22:26:15.386Z,5.63
2023-10-11T22:28:45.194Z,5.15
2023-10-11T22:31:13.708Z,5.78
2023-10-11T22:33:44.330Z,5.05
2023-10-11T22:36:16.554Z,5.32
2023-10-11T22:38:47.174Z,5.70
2023-10-11T22:41:18.866Z,5.25
2023-10-11T22:43:47.383Z,4.65
2023-10-11T22:46:15.728Z,5.50
2023-10-11T22:48:46.166Z,5.30
2023-10-11T22:51:18.664Z,11.13
2023-10-11T22:56:21.365Z,5.57
2023-10-11T22:58:51.975Z,5.65
2023-10-11T23:01:20.884Z,5.32
2023-10-11T23:03:48.816Z,5.30
2023-10-11T23:06:17.202Z,5.43
2023-10-11T23:08:47.130Z,4.95
2023-10-11T23:11:19.982Z,5.28
2023-10-11T23:13:49.518Z,5.72
2023-10-11T23:16:19.036Z,5.82
2023-10-11T23:18:47.714Z,5.40
2023-10-11T23:21:21.822Z,5.30
2023-10-11T23:23:53.253Z,5.63
2023-10-11T23:26:27.167Z,5.15
2023-10-11T23:28:57.974Z,5.35
2023-10-11T23:31:27.593Z,5.93
2023-10-11T23:33:57.841Z,5.43
2023-10-11T23:36:36.010Z,5.65
2023-10-11T23:39:07.834Z,5.07
2023-10-11T23:41:46.682Z,5.50
2023-10-11T23:44:23.661Z,5.43
2023-10-11T23:46:59.690Z,5.72
2023-10-11T23:49:41.746Z,6.20
2023-10-11T23:52:15.065Z,5.63
2023-10-11T23:54:44.493Z,6.10
2023-10-11T23:57:23.081Z,5.57
2023-10-11T23:59:51.269Z,5.93
